createdAt,value
2022-11-23T03:05:57.840Z,51.074406
2022-11-23T03:06:57.602Z,51.074413
2022-11-23T03:07:57.367Z,51.074406
2022-11-23T03:08:57.313Z,51.074490
2022-11-23T03:09:57.235Z,51.074429
2022-11-23T03:10:57.248Z,51.074436
2022-11-23T03:11:57.281Z,51.074520
2022-11-23T03:12:57.287Z,51.074528
2022-11-23T03:13:57.185Z,51.074432
2022-11-23T03:14:57.251Z,51.074425
2022-11-23T03:15:57.191Z,51.074463
2022-11-23T03:16:57.195Z,51.074421
2022-11-23T03:17:57.199Z,51.074471
2022-11-23T03:18:57.252Z,51.074432
2022-11-23T03:19:57.161Z,51.074509
2022-11-23T03:20:57.187Z,51.074471
2022-11-23T03:21:57.139Z,51.074444
2022-11-23T03:22:57.154Z,51.074440
2022-11-23T03:23:57.234Z,51.074455
2022-11-23T03:24:57.114Z,51.074425
2022-11-23T03:25:57.163Z,51.074459
2022-11-23T03:26:57.154Z,51.074471
2022-11-23T03:27:57.190Z,51.074471
2022-11-23T03:28:57.073Z,51.074425
2022-11-23T03:29:57.169Z,51.074474
2022-11-23T03:30:57.142Z,51.074463
2022-11-23T03:31:57.217Z,51.074497
2022-11-23T03:32:57.147Z,51.074451
2022-11-23T03:33:57.059Z,51.074448
2022-11-23T03:34:57.110Z,51.074402
2022-11-23T03:35:57.063Z,51.074432
2022-11-23T03:36:57.097Z,51.074455
2022-11-23T03:37:57.118Z,51.074451
2022-11-23T03:38:57.041Z,51.074440
2022-11-23T03:39:57.124Z,51.074467
2022-11-23T03:40:57.000Z,51.074474
2022-11-23T03:41:57.140Z,51.074459
2022-11-23T03:42:57.052Z,51.074455
2022-11-23T03:43:57.211Z,51.074436
2022-11-23T03:44:58.062Z,51.074356
2022-11-23T03:45:56.989Z,51.074383
2022-11-23T03:46:56.993Z,51.074440
2022-11-23T03:47:57.062Z,51.074448
2022-11-23T03:48:57.014Z,51.074467
2022-11-23T03:49:56.912Z,51.074467
2022-11-23T03:50:57.009Z,51.074493
2022-11-23T03:51:57.028Z,51.074474
2022-11-23T03:52:56.980Z,51.074455
2022-11-23T03:53:57.004Z,51.074440
2022-11-23T03:54:56.909Z,51.074436
2022-11-23T03:55:56.972Z,51.074409
2022-11-23T03:56:56.899Z,51.074409
2022-11-23T03:57:56.911Z,51.074383
2022-11-23T03:58:56.896Z,51.074432
2022-11-23T03:59:56.913Z,51.074448
2022-11-23T04:00:57.214Z,51.074478
2022-11-23T04:01:56.915Z,51.074482
2022-11-23T04:02:56.887Z,51.074463
2022-11-23T04:03:57.042Z,51.074474
2022-11-23T04:04:56.853Z,51.074455
2022-11-23T04:05:56.840Z,51.074482
2022-11-23T04:06:56.924Z,51.074402
2022-11-23T04:07:56.951Z,51.074421
2022-11-23T04:09:01.819Z,51.074451
2022-11-23T04:09:58.851Z,51.074429
2022-11-23T04:10:56.812Z,51.074409
2022-11-23T04:11:56.891Z,51.074417
2022-11-23T04:12:56.817Z,51.074345
2022-11-23T04:13:56.829Z,51.074341
2022-11-23T04:14:56.796Z,51.074402
2022-11-23T04:15:56.861Z,51.074413
2022-11-23T04:16:56.797Z,51.074436
2022-11-23T04:17:56.843Z,51.074390
2022-11-23T04:18:56.756Z,51.074406
2022-11-23T04:19:56.768Z,51.074352
2022-11-23T04:20:56.800Z,51.074368
2022-11-23T04:21:56.729Z,51.074371
2022-11-23T04:22:56.811Z,51.074444
2022-11-23T04:23:56.760Z,51.074398
2022-11-23T04:24:56.710Z,51.074371
2022-11-23T04:25:56.786Z,51.074471
2022-11-23T04:26:56.733Z,51.074421
2022-11-23T04:27:56.721Z,51.074409
2022-11-23T04:28:56.701Z,51.074402
2022-11-23T04:29:56.765Z,51.074409
2022-11-23T04:30:56.695Z,51.074329
2022-11-23T04:31:56.703Z,51.074394
2022-11-23T04:32:56.675Z,51.074444
2022-11-23T04:33:56.706Z,51.074421
2022-11-23T04:34:56.656Z,51.074398
2022-11-23T04:35:56.653Z,51.074402
2022-11-23T04:36:56.725Z,51.074474
2022-11-23T04:37:56.687Z,51.074406
2022-11-23T04:38:56.720Z,51.074390
2022-11-23T04:39:56.624Z,51.074425
2022-11-23T04:40:56.703Z,51.074436
2022-11-23T04:41:56.618Z,51.074432
2022-11-23T04:43:00.490Z,51.074409
2022-11-23T04:43:58.682Z,51.074398
2022-11-23T04:44:56.625Z,51.074417
2022-11-23T04:45:56.760Z,51.074390
2022-11-23T04:46:56.590Z,51.074406
2022-11-23T04:47:56.613Z,51.074436
2022-11-23T04:48:56.601Z,51.074482
2022-11-23T04:49:56.648Z,51.074478
2022-11-23T04:50:56.593Z,51.074463
2022-11-23T04:51:56.636Z,51.074451
2022-11-23T04:52:56.550Z,51.074390
2022-11-23T04:53:56.609Z,51.074432
2022-11-23T04:54:56.555Z,51.074444
2022-11-23T04:55:56.693Z,51.074459
2022-11-23T04:56:56.606Z,51.074497
2022-11-23T04:57:56.535Z,51.074493
2022-11-23T04:58:56.527Z,51.074467
2022-11-23T04:59:56.506Z,51.074444
2022-11-23T05:00:56.595Z,51.074448
2022-11-23T05:01:56.526Z,51.074467
2022-11-23T05:02:57.012Z,51.074436
2022-11-23T05:03:56.489Z,51.074402
2022-11-23T05:04:56.517Z,51.074432
2022-11-23T05:05:56.430Z,51.074486
2022-11-23T05:06:56.438Z,51.074463
2022-11-23T05:07:56.442Z,51.074463
2022-11-23T05:08:56.383Z,51.074444
2022-11-23T05:09:56.462Z,51.074432
2022-11-23T05:10:56.494Z,51.074451
2022-11-23T05:11:56.390Z,51.074440
2022-11-23T05:12:56.395Z,51.074520
2022-11-23T05:13:56.420Z,51.074524
2022-11-23T05:14:56.389Z,51.074478
2022-11-23T05:15:56.393Z,51.074497
2022-11-23T05:16:56.425Z,51.074467
2022-11-23T05:17:59.079Z,51.074448
2022-11-23T05:18:57.368Z,51.074482
2022-11-23T05:19:56.327Z,51.074497
2022-11-23T05:20:56.411Z,51.074432
2022-11-23T05:21:56.331Z,51.074429
2022-11-23T05:22:56.311Z,51.074440
2022-11-23T05:23:56.382Z,51.074440
2022-11-23T05:24:56.289Z,51.074459
2022-11-23T05:25:56.270Z,51.074474
2022-11-23T05:26:56.566Z,51.074451
2022-11-23T05:27:57.274Z,51.074493
2022-11-23T05:28:56.343Z,51.074493
2022-11-23T05:29:56.297Z,51.074516
2022-11-23T05:30:56.277Z,51.074558
2022-11-23T05:31:56.270Z,51.074551
2022-11-23T05:32:56.274Z,51.074520
2022-11-23T05:33:56.530Z,51.074512
2022-11-23T05:34:56.397Z,51.074482
2022-11-23T05:35:56.320Z,51.074486
2022-11-23T05:36:56.400Z,51.074528
2022-11-23T05:37:56.347Z,51.074497
2022-11-23T05:38:56.509Z,51.074486
2022-11-23T05:39:56.313Z,51.074482
2022-11-23T05:40:56.320Z,51.074490
2022-11-23T05:41:56.341Z,51.074455
2022-11-23T05:42:56.340Z,51.074471
2022-11-23T05:43:56.358Z,51.074493
2022-11-23T05:44:56.595Z,51.074471
2022-11-23T05:45:56.393Z,51.074455
2022-11-23T05:46:56.420Z,51.074501
2022-11-23T05:47:56.298Z,51.074482
2022-11-23T05:48:56.387Z,51.074501
2022-11-23T05:49:57.280Z,51.074463
2022-11-23T05:50:58.590Z,51.074413
2022-11-23T05:51:57.296Z,51.074429
2022-11-23T05:52:56.136Z,51.074451
2022-11-23T05:53:56.317Z,51.074455
2022-11-23T05:54:56.195Z,51.074474
2022-11-23T05:55:56.276Z,51.074463
2022-11-23T05:56:56.133Z,51.074451
2022-11-23T05:57:56.217Z,51.074474
2022-11-23T05:58:56.181Z,51.074486
2022-11-23T05:59:56.093Z,51.074493
2022-11-23T06:00:56.148Z,51.074474
2022-11-23T06:01:56.099Z,51.074444
2022-11-23T06:02:56.091Z,51.074516
2022-11-23T06:03:56.135Z,51.074474
2022-11-23T06:04:56.239Z,51.074478
2022-11-23T06:05:56.063Z,51.074501
2022-11-23T06:06:56.052Z,51.074493
2022-11-23T06:07:56.093Z,51.074493
2022-11-23T06:08:56.141Z,51.074482
2022-11-23T06:09:56.085Z,51.074471
2022-11-23T06:10:56.051Z,51.074509
2022-11-23T06:11:56.046Z,51.074501
2022-11-23T06:12:56.091Z,51.074505
2022-11-23T06:13:56.122Z,51.074463
2022-11-23T06:14:56.109Z,51.074490
2022-11-23T06:15:56.120Z,51.074467
2022-11-23T06:16:56.074Z,51.074474
2022-11-23T06:17:56.099Z,51.074478
2022-11-23T06:18:56.047Z,51.074574
2022-11-23T06:19:55.989Z,51.074448
2022-11-23T06:20:56.002Z,51.074425
2022-11-23T06:21:56.035Z,51.074421
2022-11-23T06:22:55.923Z,51.074474
2022-11-23T06:23:55.948Z,51.074516
2022-11-23T06:24:56.126Z,51.074528
2022-11-23T06:25:55.964Z,51.074505
2022-11-23T06:26:55.868Z,51.074551
2022-11-23T06:27:55.908Z,51.074554
2022-11-23T06:28:55.926Z,51.074520
2022-11-23T06:29:55.858Z,51.074509
2022-11-23T06:30:55.836Z,51.074516
2022-11-23T06:31:55.860Z,51.074543
2022-11-23T06:32:55.913Z,51.074554
2022-11-23T06:33:55.915Z,51.074509
2022-11-23T06:35:00.586Z,51.074543
2022-11-23T06:35:57.865Z,51.074497
2022-11-23T06:36:55.912Z,51.074497
2022-11-23T06:37:55.853Z,51.074520
2022-11-23T06:38:55.834Z,51.074558
2022-11-23T06:39:55.819Z,51.074558
2022-11-23T06:40:55.812Z,51.074482
2022-11-23T06:42:06.503Z,51.074501
2022-11-23T06:42:57.778Z,51.074551
2022-11-23T06:43:55.836Z,51.074539
2022-11-23T06:44:55.790Z,51.074520
2022-11-23T06:45:55.855Z,51.074478
2022-11-23T06:46:55.712Z,51.074512
2022-11-23T06:47:55.763Z,51.074505
2022-11-23T06:48:55.835Z,51.074535
2022-11-23T06:49:55.688Z,51.074535
2022-11-23T06:50:55.844Z,51.074532
2022-11-23T06:51:55.838Z,51.074451
2022-11-23T06:52:55.855Z,51.074455
2022-11-23T06:53:55.755Z,51.074467
2022-11-23T06:54:55.741Z,51.074524
2022-11-23T06:55:55.673Z,51.074478
2022-11-23T06:56:55.666Z,51.074505
2022-11-23T06:57:55.677Z,51.074501
2022-11-23T06:58:55.747Z,51.074440
2022-11-23T06:59:55.710Z,51.074436
2022-11-23T07:00:55.644Z,51.074398
2022-11-23T07:01:55.682Z,51.074444
2022-11-23T07:02:55.666Z,51.074429
2022-11-23T07:03:55.767Z,51.074512
2022-11-23T07:04:55.592Z,51.074505
2022-11-23T07:05:55.588Z,51.074471
2022-11-23T07:06:55.688Z,51.074490
2022-11-23T07:07:55.638Z,51.074497
2022-11-23T07:08:55.668Z,51.074535
2022-11-23T07:09:57.554Z,51.074528
2022-11-23T07:10:56.648Z,51.074486
2022-11-23T07:11:55.597Z,51.074478
2022-11-23T07:12:55.612Z,51.074455
2022-11-23T07:13:55.662Z,51.074547
2022-11-23T07:14:55.659Z,51.074543
2022-11-23T07:15:55.544Z,51.074455
2022-11-23T07:16:55.555Z,51.074482
2022-11-23T07:17:55.602Z,51.074490
2022-11-23T07:18:55.584Z,51.074501
2022-11-23T07:19:55.546Z,51.074501
2022-11-23T07:20:55.484Z,51.074490
2022-11-23T07:21:55.510Z,51.074558
2022-11-23T07:22:55.576Z,51.074520
2022-11-23T07:23:55.472Z,51.074478
2022-11-23T07:24:55.521Z,51.074482
2022-11-23T07:25:55.432Z,51.074436
2022-11-23T07:26:55.496Z,51.074451
2022-11-23T07:27:55.558Z,51.074474
2022-11-23T07:28:55.514Z,51.074509
2022-11-23T07:29:55.469Z,51.074493
2022-11-23T07:30:55.440Z,51.074524
2022-11-23T07:31:55.648Z,51.074474
2022-11-23T07:32:55.490Z,51.074482
2022-11-23T07:33:55.406Z,51.074512
2022-11-23T07:34:55.432Z,51.074554
2022-11-23T07:35:55.393Z,51.074512
2022-11-23T07:37:00.562Z,51.074497
2022-11-23T07:37:57.416Z,51.074501
2022-11-23T07:38:55.411Z,51.074528
2022-11-23T07:39:58.243Z,51.074585
2022-11-23T07:40:56.407Z,51.074562
2022-11-23T07:42:17.376Z,51.074535
2022-11-23T07:42:57.351Z,51.074558
2022-11-23T07:43:55.428Z,51.074535
2022-11-23T07:44:55.373Z,51.074512
2022-11-23T07:45:55.393Z,51.074627
2022-11-23T07:46:55.431Z,51.074593
2022-11-23T07:47:55.317Z,51.074543
2022-11-23T07:48:55.386Z,51.074574
2022-11-23T07:49:55.389Z,51.074619
2022-11-23T07:50:55.413Z,51.074631
2022-11-23T07:51:55.340Z,51.074543
2022-11-23T07:52:55.298Z,51.074516
2022-11-23T07:53:55.332Z,51.074474
2022-11-23T07:54:55.276Z,51.074432
2022-11-23T07:55:55.287Z,51.074471
2022-11-23T07:56:55.278Z,51.074501
2022-11-23T07:57:55.292Z,51.074486
2022-11-23T07:58:55.298Z,51.074516
2022-11-23T07:59:55.306Z,51.074554
2022-11-23T08:00:55.254Z,51.074497
2022-11-23T08:01:58.481Z,51.074501
2022-11-23T08:03:26.639Z,51.074509
2022-11-23T08:03:57.243Z,51.074524
2022-11-23T08:04:55.196Z,51.074497
2022-11-23T08:05:55.283Z,51.074417
2022-11-23T08:06:55.231Z,51.074474
2022-11-23T08:07:55.180Z,51.074543
2022-11-23T08:08:55.247Z,51.074478
2022-11-23T08:09:55.161Z,51.074429
2022-11-23T08:10:55.295Z,51.074459
2022-11-23T08:11:55.234Z,51.074402
2022-11-23T08:12:55.151Z,51.074387
2022-11-23T08:13:55.152Z,51.074432
2022-11-23T08:14:55.230Z,51.074577
2022-11-23T08:15:56.118Z,51.074509
2022-11-23T08:16:56.188Z,51.074532
2022-11-23T08:17:55.169Z,51.074440
2022-11-23T08:18:55.288Z,51.074463
2022-11-23T08:19:55.126Z,51.074509
2022-11-23T08:20:55.247Z,51.074512
2022-11-23T08:21:55.117Z,51.074474
2022-11-23T08:22:55.108Z,51.074486
2022-11-23T08:23:55.157Z,51.074459
2022-11-23T08:24:55.186Z,51.074436
2022-11-23T08:25:55.129Z,51.074444
2022-11-23T08:26:55.084Z,51.074463
2022-11-23T08:27:55.074Z,51.074520
2022-11-23T08:28:55.021Z,51.074440
2022-11-23T08:29:55.036Z,51.074493
2022-11-23T08:30:55.063Z,51.074478
2022-11-23T08:31:55.065Z,51.074486
2022-11-23T08:32:55.014Z,51.074471
2022-11-23T08:33:58.840Z,51.074509
2022-11-23T08:34:56.029Z,51.074520
2022-11-23T08:35:54.985Z,51.074516
2022-11-23T08:36:54.998Z,51.074463
2022-11-23T08:37:55.039Z,51.074486
2022-11-23T08:38:55.019Z,51.074585
2022-11-23T08:39:55.000Z,51.074463
2022-11-23T08:40:55.052Z,51.074413
2022-11-23T08:41:54.923Z,51.074406
2022-11-23T08:42:54.997Z,51.074490
2022-11-23T08:43:55.001Z,51.074432
2022-11-23T08:44:55.006Z,51.074451
2022-11-23T08:45:57.679Z,51.074478
2022-11-23T08:46:57.039Z,51.074471
2022-11-23T08:47:54.934Z,51.074467
2022-11-23T08:48:54.947Z,51.074463
2022-11-23T08:49:54.921Z,51.074558
2022-11-23T08:50:54.976Z,51.074532
2022-11-23T08:51:54.893Z,51.074467
2022-11-23T08:52:54.979Z,51.074482
2022-11-23T08:53:54.959Z,51.074467
2022-11-23T08:54:54.973Z,51.074482
2022-11-23T08:55:54.847Z,51.074516
2022-11-23T08:56:54.940Z,51.074562
2022-11-23T08:57:54.872Z,51.074520
2022-11-23T08:58:54.876Z,51.074463
2022-11-23T08:59:54.902Z,51.074482
2022-11-23T09:00:54.832Z,51.074524
2022-11-23T09:01:54.968Z,51.074551
2022-11-23T09:02:54.836Z,51.074574
2022-11-23T09:03:54.849Z,51.074562
